Briefing drone pour Saint-ferreol-d'auroure

Rechercher une autre localisation

Conditions de vol :


Nous sommes le : Lundi 28 novembre 2022
Il est 18:03 UTC (19:03 LT)

Lever de soleil : 06:32 UTC (07:32 LT)
Coucher de soleil : 16:29 UTC (17:29 LT)

Météo

L'essentiel des conditions de vol

VIGILANCE MÉTÉO FRANCE - Haute-Loire (43)
Pas de vigilances particulieres
METAR de LFMH
LFMH 281800Z AUTO 08002KT 9999 NSC 06/05 Q1015

Date d'émission: 28/11/2022
Heure d'émission: 18:00 UTC
Vent: 080° pour 2 KT (4 km/h)
Visibilité horizontale: > 10 km
Plafond : Pas de nuages significatifs (NSC)
Température: 6 °C
Point de rosée: 5 °C
Humidité: 93%
Pression (QNH): 1015 hPa
TAF de LFMH
LFMH 161901Z 1619/1712 CNL

Conditions prévues :

Heure d'émission : Bulletin éffectué le 16 à 19:00 UTC
Prévision : Valide du 16 a 19:00 UTC au 17 a 12:00 UTC
Nuages : à 0ft (0 m)
WEBCAM POUR SAINT-FERREOL-D'AUROURE

Réglementation

Voler en sécurité

CARTES AERONAUTIQUE 1/500.000
CARTE AZBA (Reseau basse altitude)
CARTES VAC (LFMH)
SUP AIP




Chargement des AIP...
NOTAM (SAINT-FERREOL-D'AUROURE + Terrain à proximité / FIR )




Chargement des NOTAMS...
CONTACT PREFECTURE 43


Avertissement : Les données mises à disposition sont indicatives. Oxygène Drone ne pourra être tenu responsable de dégâts causés aux biens et aux personnes.